Gujranwala Weather



Gujranwala's Current Weather

Temprature 23.486o clear sky

clear sky

Rain: 0 %

Min Temprature23.486o
Max Temprature23.486o
Humidity48
Wind Speed1.17 m/h
Sun Rise05:27:55
Sun Set18:35:48
Current Time: 21-Apr-2019 06:13:15
Lat/Lon: 32.15, 74.19




Gujranwala's Geo Location



Gujranwala's Weather Forecast

Time Overall Temp Min Temp Max Temp Humidity Wind Speed Rain
21-Apr-2019 (Sun)
08:00:00 clear sky 28.290 28.289 28.290 39 1.81 m/h 0 %
11:00:00 clear sky 34.350 34.350 34.350 26 0.57 m/h 0 %
14:00:00 clear sky 36.150 36.150 36.150 21 1.37 m/h 0 %
17:00:00 clear sky 35.350 35.350 35.350 21 1.92 m/h 0 %
20:00:00 clear sky 30.150 30.150 30.150 29 2.74 m/h 0 %
23:00:00 clear sky 28.170 28.170 28.170 32 2.15 m/h 0 %
22-Apr-2019 (Mon)
02:00:00 clear sky 25.870 25.870 25.870 37 1.93 m/h 0 %
05:00:00 clear sky 24.564 24.564 24.564 40 1.63 m/h 0 %
08:00:00 clear sky 29.256 29.256 29.256 33 1.54 m/h 0 %
11:00:00 clear sky 35.420 35.420 35.420 21 1.61 m/h 0 %
14:00:00 clear sky 37.815 37.815 37.815 17 3.57 m/h 0 %
17:00:00 clear sky 37.231 37.231 37.231 18 3.53 m/h 0 %
20:00:00 clear sky 31.150 31.150 31.150 26 2.73 m/h 0 %
23:00:00 clear sky 28.896 28.896 28.896 28 3.01 m/h 0 %
23-Apr-2019 (Tue)
02:00:00 clear sky 27.077 27.077 27.077 31 3.12 m/h 0 %
05:00:00 clear sky 25.356 25.356 25.356 32 2.86 m/h 0 %
08:00:00 clear sky 30.007 30.007 30.007 26 0.33 m/h 0 %
11:00:00 few clouds 36.750 36.750 36.750 17 2.19 m/h 0 %
14:00:00 few clouds 39.950 39.950 39.950 14 3.53 m/h 0 %
17:00:00 few clouds 39.050 39.050 39.050 15 3.37 m/h 0 %
20:00:00 clear sky 32.228 32.228 32.228 21 3.26 m/h 0 %
23:00:00 clear sky 30.150 30.150 30.150 23 3.23 m/h 0 %
24-Apr-2019 (Wed)
02:00:00 broken clouds 28.182 28.182 28.182 25 3.03 m/h 0 %
05:00:00 light rain 26.814 26.814 26.814 26 2.83 m/h 38 %
08:00:00 overcast clouds 31.350 31.350 31.350 20 2.78 m/h 0 %
11:00:00 broken clouds 39.308 39.308 39.308 12 4.86 m/h 0 %
14:00:00 scattered clouds 42.250 42.250 42.250 9 3.55 m/h 0 %
17:00:00 broken clouds 38.350 38.350 38.350 14 2.26 m/h 0 %
20:00:00 overcast clouds 34.455 34.455 34.455 15 1.48 m/h 0 %
23:00:00 overcast clouds 30.545 30.545 30.545 20 3.81 m/h 0 %
25-Apr-2019 (Thu)
02:00:00 scattered clouds 27.550 27.550 27.550 32 6.03 m/h 0 %
05:00:00 broken clouds 26.892 26.892 26.892 32 3.33 m/h 0 %
08:00:00 overcast clouds 31.420 31.420 31.420 25 2.81 m/h 0 %
11:00:00 overcast clouds 35.390 35.390 35.390 17 4.55 m/h 0 %
14:00:00 scattered clouds 38.850 38.850 38.850 12 3.29 m/h 0 %
17:00:00 few clouds 38.311 38.311 38.311 12 0.92 m/h 0 %
20:00:00 clear sky 32.425 32.425 32.425 17 1.81 m/h 0 %
23:00:00 scattered clouds 29.243 29.243 29.243 20 3.17 m/h 0 %
26-Apr-2019 (Fri)
02:00:00 overcast clouds 27.332 27.332 27.332 22 1.23 m/h 0 %
05:00:00 light rain 25.596 25.596 25.596 26 3.45 m/h 31 %

Famous Cities (60)